Terminal Aerodrome Forecast
Issued by NWS Grand Forks, ND

Home | Current Version | Previous Version | Graphics & Text | Print | Product List | Glossary On
Versions: 1 2 3 4 5 6 7 8 9 10 11 12 13 14 15 16 17 18 19
000
FTUS43 KFGF 251511 AAA
TAFFAR
TAF AMD
KFAR 251511Z 2515/2612 16020G32KT P6SM SCT100
     FM252300 17013G20KT P6SM BKN090
     FM260300 15009KT P6SM BKN100=

USA.gov is the U.S. government's official web portal to all federal, state and local government web resources and services.